createdAt,value
2018-05-03T00:00:51.145Z,14.25
2018-05-03T00:03:18.697Z,14.24
2018-05-03T00:05:46.302Z,14.21
2018-05-03T00:08:13.854Z,14.16
2018-05-03T00:10:41.444Z,14.15
2018-05-03T00:13:09.025Z,14.12
2018-05-03T00:15:36.864Z,14.10
2018-05-03T00:18:04.418Z,14.07
2018-05-03T00:20:32.182Z,14.04
2018-05-03T00:22:59.732Z,14.04
2018-05-03T00:25:27.281Z,13.95
2018-05-03T00:27:54.859Z,13.96
2018-05-03T00:30:22.386Z,13.94
2018-05-03T00:32:49.938Z,13.92
2018-05-03T00:35:17.632Z,13.85
2018-05-03T00:37:45.185Z,13.79
2018-05-03T00:40:12.727Z,13.70
2018-05-03T00:42:40.350Z,13.69
2018-05-03T00:45:07.987Z,13.64
2018-05-03T00:47:35.472Z,13.60
2018-05-03T00:50:03.217Z,13.58
2018-05-03T00:52:30.759Z,13.57
2018-05-03T00:54:58.310Z,13.55
2018-05-03T00:57:26.847Z,13.60
2018-05-03T00:59:54.388Z,13.57
2018-05-03T01:02:21.955Z,13.61
2018-05-03T01:04:49.667Z,13.59
2018-05-03T01:07:17.203Z,13.56
2018-05-03T01:09:45.229Z,13.52
2018-05-03T01:12:13.132Z,13.52
2018-05-03T01:14:40.674Z,13.44
2018-05-03T01:17:08.222Z,13.39
2018-05-03T01:19:35.820Z,13.37
2018-05-03T01:22:03.376Z,13.35
2018-05-03T01:24:30.940Z,13.34
2018-05-03T01:26:58.683Z,13.31
2018-05-03T01:29:26.255Z,13.27
2018-05-03T01:31:53.804Z,13.27
2018-05-03T01:34:21.533Z,13.23
2018-05-03T01:36:49.080Z,13.11
2018-05-03T01:39:16.636Z,13.13
2018-05-03T01:41:44.209Z,13.13
2018-05-03T01:44:11.764Z,13.07
2018-05-03T01:46:39.315Z,13.10
2018-05-03T01:49:07.200Z,13.15
2018-05-03T01:51:34.739Z,13.11
2018-05-03T01:54:02.280Z,13.10
2018-05-03T01:56:29.836Z,13.07
2018-05-03T01:58:57.396Z,13.04
2018-05-03T02:01:24.960Z,12.97
2018-05-03T02:03:52.713Z,12.96
2018-05-03T02:06:20.294Z,12.84
2018-05-03T02:08:47.861Z,12.83
2018-05-03T02:11:15.588Z,12.83
2018-05-03T02:13:43.150Z,12.84
2018-05-03T02:16:10.711Z,12.82
2018-05-03T02:18:38.557Z,12.81
2018-05-03T02:21:06.139Z,12.76
2018-05-03T02:23:33.674Z,12.75
2018-05-03T02:26:01.242Z,12.75
2018-05-03T02:28:28.800Z,12.74
2018-05-03T02:30:56.345Z,12.73
2018-05-03T02:33:23.929Z,12.70
2018-05-03T02:35:51.480Z,12.68
2018-05-03T02:38:19.020Z,12.69
2018-05-03T02:40:46.687Z,12.65
2018-05-03T02:43:14.219Z,12.64
2018-05-03T02:45:41.770Z,12.62
2018-05-03T02:48:09.364Z,12.57
2018-05-03T02:50:36.924Z,12.54
2018-05-03T02:53:04.461Z,12.49
2018-05-03T02:55:32.358Z,12.47
2018-05-03T02:58:17.149Z,12.44
2018-05-03T03:01:02.168Z,12.39
2018-05-03T03:03:47.087Z,12.36
2018-05-03T03:06:31.832Z,12.36
2018-05-03T03:09:15.692Z,12.34
2018-05-03T03:12:00.637Z,12.31
2018-05-03T03:14:45.609Z,12.32
2018-05-03T03:17:30.441Z,12.31
2018-05-03T03:20:15.362Z,12.37
2018-05-03T03:23:00.123Z,12.41
2018-05-03T03:29:05.630Z,12.63
2018-05-03T03:31:50.362Z,12.91
2018-05-03T03:34:23.628Z,13.31
2018-05-03T03:40:17.318Z,14.55
2018-05-03T03:45:49.879Z,16.29
2018-05-03T03:48:17.461Z,17.13
2018-05-03T03:50:45.019Z,17.97
2018-05-03T03:53:12.677Z,18.78
2018-05-03T03:55:40.163Z,19.70
2018-05-03T03:58:07.755Z,20.63
2018-05-03T04:00:35.351Z,21.58
2018-05-03T04:03:02.909Z,22.53
2018-05-03T04:05:30.511Z,23.59
2018-05-03T04:07:58.054Z,23.95
2018-05-03T04:10:25.600Z,24.81
2018-05-03T04:12:53.175Z,25.91
2018-05-03T04:15:20.722Z,26.85
2018-05-03T04:18:00.141Z,27.34
2018-05-03T04:20:46.205Z,27.88
2018-05-03T04:26:18.667Z,28.67
2018-05-03T04:28:46.804Z,29.15
2018-05-03T04:31:14.368Z,29.29
2018-05-03T04:33:41.936Z,29.32
2018-05-03T04:36:09.763Z,29.03
2018-05-03T04:38:37.307Z,29.29
2018-05-03T04:41:04.878Z,29.89
2018-05-03T04:43:32.607Z,29.74
2018-05-03T04:46:00.207Z,29.22
2018-05-03T04:48:27.773Z,29.28
2018-05-03T04:50:55.372Z,30.69
2018-05-03T04:53:22.921Z,31.49
2018-05-03T04:55:50.469Z,32.18
2018-05-03T04:58:18.059Z,33.44
2018-05-03T05:00:45.617Z,34.72
2018-05-03T05:03:13.167Z,34.76
2018-05-03T05:05:41.032Z,35.21
2018-05-03T05:08:08.596Z,35.33
2018-05-03T05:10:36.203Z,35.17
2018-05-03T05:13:03.748Z,35.04
2018-05-03T05:15:31.308Z,34.90
2018-05-03T05:17:58.953Z,34.53
2018-05-03T05:20:26.491Z,34.79
2018-05-03T05:22:54.042Z,34.24
2018-05-03T05:25:21.591Z,33.57
2018-05-03T05:27:49.176Z,33.28
2018-05-03T05:30:16.994Z,32.77
2018-05-03T05:32:44.548Z,32.10
2018-05-03T05:35:12.129Z,31.46
2018-05-03T05:37:39.681Z,31.25
2018-05-03T05:40:07.260Z,30.63
2018-05-03T05:42:34.859Z,29.80
2018-05-03T05:45:02.416Z,29.51
2018-05-03T05:47:29.955Z,28.98
2018-05-03T05:49:57.739Z,29.00
2018-05-03T05:52:25.298Z,28.72
2018-05-03T05:54:52.874Z,29.01
2018-05-03T05:57:20.611Z,28.71
2018-05-03T05:59:48.170Z,27.92
2018-05-03T06:02:15.775Z,27.64
2018-05-03T06:04:43.346Z,27.63
2018-05-03T06:07:10.935Z,27.37
2018-05-03T06:09:38.501Z,26.85
2018-05-03T06:12:06.199Z,24.88
2018-05-03T06:14:33.771Z,24.74
2018-05-03T06:17:01.336Z,24.70
2018-05-03T06:19:29.219Z,24.43
2018-05-03T06:21:56.826Z,23.86
2018-05-03T06:24:24.382Z,24.12
2018-05-03T06:26:51.981Z,24.41
2018-05-03T06:29:19.527Z,24.69
2018-05-03T06:31:47.080Z,24.37
2018-05-03T06:34:14.665Z,24.70
2018-05-03T06:36:42.223Z,25.01
2018-05-03T06:39:09.789Z,25.24
2018-05-03T06:41:37.370Z,25.13
2018-05-03T06:44:04.956Z,24.60
2018-05-03T06:46:32.512Z,24.93
2018-05-03T06:49:00.104Z,25.50
2018-05-03T06:51:27.692Z,24.91
2018-05-03T06:53:55.250Z,25.37
2018-05-03T06:56:22.849Z,25.98
2018-05-03T06:58:50.432Z,25.91
2018-05-03T07:01:17.975Z,25.36
2018-05-03T07:03:45.566Z,24.61
2018-05-03T07:06:13.123Z,24.92
2018-05-03T07:08:40.680Z,25.38
2018-05-03T07:11:08.279Z,25.61
2018-05-03T07:13:35.847Z,25.79
2018-05-03T07:16:03.602Z,25.89
2018-05-03T07:18:31.263Z,25.72
2018-05-03T07:20:58.812Z,25.86
2018-05-03T07:23:26.373Z,26.07
2018-05-03T07:25:54.189Z,26.40
2018-05-03T07:28:21.735Z,26.49
2018-05-03T07:30:49.316Z,26.46
2018-05-03T07:33:17.007Z,26.70
2018-05-03T07:35:44.560Z,27.08
2018-05-03T07:38:12.108Z,27.13
2018-05-03T07:40:39.783Z,26.57
2018-05-03T07:43:07.349Z,26.72
2018-05-03T07:45:34.904Z,26.11
2018-05-03T07:48:02.561Z,25.55
2018-05-03T07:50:30.143Z,24.88
2018-05-03T07:52:57.687Z,25.34
2018-05-03T07:55:25.425Z,25.45
2018-05-03T07:57:52.977Z,25.09
2018-05-03T08:00:20.532Z,24.95
2018-05-03T08:02:48.259Z,25.17
2018-05-03T08:05:15.818Z,24.98
2018-05-03T08:07:43.356Z,24.96
2018-05-03T08:10:10.912Z,25.14
2018-05-03T08:12:38.467Z,25.03
2018-05-03T08:15:06.235Z,25.25
2018-05-03T08:17:33.790Z,25.02
2018-05-03T08:20:01.350Z,24.65
2018-05-03T08:22:29.240Z,24.63
2018-05-03T08:24:56.790Z,24.14
2018-05-03T08:27:24.388Z,23.95
2018-05-03T08:29:52.070Z,23.96
2018-05-03T08:32:19.633Z,24.00
2018-05-03T08:34:47.189Z,24.24
2018-05-03T08:37:14.910Z,24.11
2018-05-03T08:39:42.458Z,23.75
2018-05-03T08:42:10.020Z,23.93
2018-05-03T08:44:37.591Z,24.08
2018-05-03T08:47:05.141Z,24.23
2018-05-03T08:49:32.751Z,24.30
2018-05-03T08:52:00.423Z,24.18
2018-05-03T08:54:27.982Z,23.97
2018-05-03T08:56:55.535Z,24.18
2018-05-03T08:59:23.257Z,23.88
2018-05-03T09:01:50.850Z,24.03
2018-05-03T09:04:18.372Z,23.81
2018-05-03T09:06:45.964Z,24.21
2018-05-03T09:09:13.517Z,24.63
2018-05-03T09:11:41.092Z,24.64
2018-05-03T09:14:08.668Z,24.47
2018-05-03T09:16:36.228Z,24.51
2018-05-03T09:19:03.761Z,24.46
2018-05-03T09:21:31.326Z,24.35
2018-05-03T09:23:58.901Z,24.16
2018-05-03T09:26:26.454Z,24.10
2018-05-03T09:28:54.032Z,24.14
2018-05-03T09:31:21.573Z,24.41
2018-05-03T09:33:50.657Z,24.38
2018-05-03T09:36:18.507Z,24.31
2018-05-03T09:38:46.045Z,24.44
2018-05-03T09:41:13.664Z,24.84
2018-05-03T09:43:41.220Z,24.99
2018-05-03T09:46:08.743Z,25.08
2018-05-03T09:48:36.295Z,24.91
2018-05-03T09:51:04.023Z,24.84
2018-05-03T09:53:31.573Z,24.61
2018-05-03T09:55:59.187Z,24.73
2018-05-03T09:58:26.753Z,24.75
2018-05-03T10:07:36.526Z,24.41
2018-05-03T10:10:04.080Z,24.49
2018-05-03T10:12:31.625Z,24.87
2018-05-03T10:14:59.355Z,25.08
2018-05-03T10:17:26.922Z,24.84
2018-05-03T10:19:54.485Z,25.23
2018-05-03T10:22:22.052Z,25.34
2018-05-03T10:24:49.606Z,25.82
2018-05-03T10:27:17.148Z,26.00
2018-05-03T10:29:44.716Z,26.08
2018-05-03T10:32:12.252Z,26.20
2018-05-03T10:34:39.796Z,25.88
2018-05-03T10:37:07.379Z,25.75
2018-05-03T10:39:34.971Z,25.57
2018-05-03T10:42:02.642Z,25.32
2018-05-03T10:44:30.132Z,25.42
2018-05-03T10:46:57.690Z,25.50
2018-05-03T10:49:25.244Z,25.65
2018-05-03T10:51:52.820Z,25.71
2018-05-03T10:54:20.381Z,25.79
2018-05-03T10:56:47.924Z,25.92
2018-05-03T10:59:15.593Z,26.15
2018-05-03T11:01:43.165Z,26.21
2018-05-03T11:04:10.748Z,26.11
2018-05-03T11:06:38.467Z,26.09
2018-05-03T11:09:07.027Z,26.22
2018-05-03T11:11:34.565Z,26.15
2018-05-03T11:14:02.145Z,25.96
2018-05-03T11:16:29.720Z,25.69
2018-05-03T11:18:57.268Z,25.67
2018-05-03T11:21:24.807Z,25.69
2018-05-03T11:23:52.531Z,25.74
2018-05-03T11:26:20.084Z,25.67
2018-05-03T11:28:47.634Z,25.75
2018-05-03T11:31:15.357Z,25.68
2018-05-03T11:33:42.946Z,25.71
2018-05-03T11:36:10.496Z,25.78
2018-05-03T11:38:38.131Z,25.73
2018-05-03T11:41:05.712Z,25.69
2018-05-03T11:43:33.260Z,25.76
2018-05-03T11:46:00.853Z,25.74
2018-05-03T11:48:28.393Z,25.69
2018-05-03T11:50:55.935Z,25.53
2018-05-03T11:53:23.630Z,25.38
2018-05-03T11:55:51.198Z,25.08
2018-05-03T11:58:18.765Z,24.99
2018-05-03T12:00:46.395Z,24.49
2018-05-03T12:03:13.955Z,23.78
2018-05-03T12:05:41.505Z,23.00
2018-05-03T12:08:09.069Z,22.38
2018-05-03T12:10:36.608Z,21.80
2018-05-03T12:13:04.178Z,21.15
2018-05-03T12:15:31.794Z,20.64
2018-05-03T12:17:59.344Z,20.33
2018-05-03T12:20:26.940Z,20.10
2018-05-03T12:22:54.475Z,20.00
2018-05-03T12:25:22.037Z,19.87
2018-05-03T12:27:49.584Z,19.69
2018-05-03T12:30:17.197Z,19.67
2018-05-03T12:32:44.752Z,19.74
2018-05-03T12:35:12.287Z,19.80
2018-05-03T12:37:39.887Z,19.72
2018-05-03T12:40:07.449Z,19.89
2018-05-03T12:42:34.990Z,19.95
2018-05-03T12:45:03.505Z,20.05
2018-05-03T12:47:31.055Z,20.23
2018-05-03T12:49:58.603Z,20.38
2018-05-03T12:52:26.198Z,20.50
2018-05-03T12:54:53.736Z,20.61
2018-05-03T12:57:21.284Z,20.73
2018-05-03T12:59:48.919Z,20.90
2018-05-03T13:02:16.469Z,21.07
2018-05-03T13:04:44.015Z,21.20
2018-05-03T13:07:11.589Z,21.22
2018-05-03T13:09:39.138Z,21.27
2018-05-03T13:12:06.720Z,21.29
2018-05-03T13:14:34.308Z,21.30
2018-05-03T13:17:01.877Z,21.26
2018-05-03T13:19:29.433Z,21.27
2018-05-03T13:21:57.033Z,21.20
2018-05-03T13:24:24.584Z,21.19
2018-05-03T13:26:52.128Z,21.17
2018-05-03T13:29:19.717Z,21.05
2018-05-03T13:31:47.272Z,20.96
2018-05-03T13:34:14.829Z,20.89
2018-05-03T13:36:42.497Z,20.80
2018-05-03T13:39:10.051Z,20.75
2018-05-03T13:41:37.603Z,20.63
2018-05-03T13:44:05.272Z,20.54
2018-05-03T13:46:32.821Z,20.43
2018-05-03T13:49:00.354Z,20.41
2018-05-03T13:51:27.931Z,20.37
2018-05-03T13:53:55.488Z,20.31
2018-05-03T13:56:23.033Z,20.18
2018-05-03T13:58:50.632Z,20.12
2018-05-03T14:01:18.194Z,20.11
2018-05-03T14:03:45.742Z,20.09
2018-05-03T14:06:13.431Z,20.03
2018-05-03T14:08:40.976Z,20.08
2018-05-03T14:11:08.521Z,20.17
2018-05-03T14:13:36.093Z,20.25
2018-05-03T14:16:03.721Z,20.35
2018-05-03T14:18:31.273Z,20.51
2018-05-03T14:20:59.026Z,20.69
2018-05-03T14:23:26.530Z,20.78
2018-05-03T14:25:54.069Z,20.90
2018-05-03T14:28:21.652Z,21.02
2018-05-03T14:30:49.191Z,21.14
2018-05-03T14:33:16.747Z,21.23
2018-05-03T14:35:44.477Z,21.31
2018-05-03T14:38:12.034Z,21.40
2018-05-03T14:40:39.633Z,21.46
2018-05-03T14:43:07.312Z,21.49
2018-05-03T14:45:34.869Z,21.54
2018-05-03T14:48:02.427Z,21.57
2018-05-03T14:50:30.281Z,21.59
2018-05-03T14:52:57.832Z,21.59
2018-05-03T14:55:25.378Z,21.64
2018-05-03T14:57:52.954Z,21.66
2018-05-03T15:00:20.507Z,21.66
2018-05-03T15:02:48.062Z,21.65
2018-05-03T15:05:15.989Z,21.63
2018-05-03T15:07:43.547Z,21.61
2018-05-03T15:10:11.097Z,21.61
2018-05-03T15:12:38.867Z,21.62
2018-05-03T15:15:06.418Z,21.58
2018-05-03T15:17:34.206Z,21.57
2018-05-03T15:20:01.925Z,21.59
2018-05-03T15:22:29.472Z,21.63
2018-05-03T15:24:57.031Z,21.69
2018-05-03T15:27:24.759Z,21.70
2018-05-03T15:29:52.329Z,21.69
2018-05-03T15:32:19.886Z,21.66
2018-05-03T15:34:47.592Z,21.61
2018-05-03T15:37:15.141Z,21.56
2018-05-03T15:39:42.705Z,21.49
2018-05-03T15:42:10.418Z,21.45
2018-05-03T15:44:37.991Z,21.36
2018-05-03T15:47:05.564Z,21.32
2018-05-03T15:49:33.234Z,21.23
2018-05-03T15:52:00.777Z,21.21
2018-05-03T15:54:28.333Z,21.11
2018-05-03T15:56:56.210Z,21.02
2018-05-03T15:59:23.757Z,20.83
2018-05-03T16:01:51.320Z,20.68
2018-05-03T16:04:18.909Z,20.23
2018-05-03T16:06:46.457Z,20.28
2018-05-03T16:09:14.020Z,20.26
2018-05-03T16:11:41.786Z,20.29
2018-05-03T16:14:09.345Z,20.22
2018-05-03T16:16:36.942Z,20.14
2018-05-03T16:19:04.826Z,20.12
2018-05-03T16:21:32.386Z,20.01
2018-05-03T16:23:59.956Z,19.94
2018-05-03T16:26:27.643Z,19.91
2018-05-03T16:28:55.210Z,19.88
2018-05-03T16:31:22.791Z,19.80
2018-05-03T16:33:52.173Z,19.75
2018-05-03T16:36:19.712Z,19.70
2018-05-03T16:38:47.272Z,19.67
2018-05-03T16:41:14.858Z,19.62
2018-05-03T16:43:42.426Z,19.53
2018-05-03T16:46:09.973Z,19.45
2018-05-03T16:48:37.840Z,19.36
2018-05-03T16:51:05.418Z,19.28
2018-05-03T16:53:32.973Z,19.27
2018-05-03T16:56:00.855Z,19.18
2018-05-03T16:58:28.430Z,19.12
2018-05-03T17:00:55.995Z,19.05
2018-05-03T17:03:23.728Z,19.00
2018-05-03T17:05:51.267Z,19.02
2018-05-03T17:08:18.822Z,18.99
2018-05-03T17:10:46.391Z,18.98
2018-05-03T17:13:13.942Z,18.97
2018-05-03T17:15:41.532Z,18.95
2018-05-03T17:18:09.090Z,18.91
2018-05-03T17:20:36.636Z,18.91
2018-05-03T17:23:04.230Z,18.85
2018-05-03T17:25:31.789Z,18.81
2018-05-03T17:27:59.367Z,18.78
2018-05-03T17:30:26.973Z,18.67
2018-05-03T17:32:54.539Z,18.65
2018-05-03T17:35:22.097Z,18.66
2018-05-03T17:37:49.838Z,18.64
2018-05-03T17:40:17.513Z,18.68
2018-05-03T17:42:45.072Z,18.57
2018-05-03T17:45:12.947Z,18.49
2018-05-03T17:47:40.491Z,18.47
2018-05-03T17:50:08.077Z,18.42
2018-05-03T17:52:35.674Z,18.47
2018-05-03T17:55:03.248Z,18.44
2018-05-03T17:57:30.828Z,18.43
2018-05-03T17:59:58.542Z,18.40
2018-05-03T18:02:26.112Z,18.41
2018-05-03T18:04:53.694Z,18.35
2018-05-03T18:07:21.295Z,18.35
2018-05-03T18:09:48.845Z,18.28
2018-05-03T18:12:16.434Z,18.18
2018-05-03T18:14:44.152Z,18.23
2018-05-03T18:17:11.731Z,18.24
2018-05-03T18:19:39.284Z,18.24
2018-05-03T18:22:06.892Z,18.24
2018-05-03T18:24:34.460Z,18.25
2018-05-03T18:27:02.032Z,18.23
2018-05-03T18:29:29.954Z,18.21
2018-05-03T18:31:57.520Z,18.11
2018-05-03T18:34:25.097Z,18.13
2018-05-03T18:36:52.672Z,18.18
2018-05-03T18:39:20.250Z,18.21
2018-05-03T18:41:47.809Z,18.25
2018-05-03T18:44:15.415Z,18.26
2018-05-03T18:46:43.013Z,18.32
2018-05-03T18:49:10.692Z,18.38
2018-05-03T18:51:38.245Z,18.49
2018-05-03T18:54:05.894Z,18.55
2018-05-03T18:56:33.427Z,18.52
2018-05-03T18:59:01.181Z,18.54
2018-05-03T19:01:28.740Z,18.54
2018-05-03T19:03:56.338Z,18.61
2018-05-03T19:06:24.225Z,18.56
2018-05-03T19:08:51.834Z,18.53
2018-05-03T19:11:19.397Z,18.59
2018-05-03T19:13:46.982Z,18.57
2018-05-03T19:16:14.560Z,18.55
2018-05-03T19:18:42.103Z,18.63
2018-05-03T19:21:09.850Z,18.58
2018-05-03T19:23:37.408Z,18.63
2018-05-03T19:26:04.974Z,18.47
2018-05-03T19:28:32.713Z,18.46
2018-05-03T19:31:00.299Z,18.41
2018-05-03T19:33:27.857Z,18.37
2018-05-03T19:35:55.446Z,18.31
2018-05-03T19:38:23.004Z,18.24
2018-05-03T19:40:50.564Z,18.20
2018-05-03T19:43:18.149Z,18.11
2018-05-03T19:45:45.693Z,18.05
2018-05-03T19:48:13.256Z,18.05
2018-05-03T19:50:41.909Z,18.05
2018-05-03T19:53:09.455Z,18.05
2018-05-03T19:55:36.995Z,17.98
2018-05-03T19:58:04.604Z,17.94
2018-05-03T20:00:32.153Z,18.01
2018-05-03T20:02:59.704Z,17.97
2018-05-03T20:05:27.429Z,17.96
2018-05-03T20:07:54.980Z,17.87
2018-05-03T20:10:22.541Z,17.79
2018-05-03T20:12:50.124Z,17.77
2018-05-03T20:15:17.781Z,17.76
2018-05-03T20:17:45.278Z,17.66
2018-05-03T20:20:13.012Z,17.74
2018-05-03T20:22:40.562Z,17.73
2018-05-03T20:25:08.117Z,17.67
2018-05-03T20:27:35.847Z,17.65
2018-05-03T20:30:03.451Z,17.56
2018-05-03T20:32:30.986Z,17.54
2018-05-03T20:34:58.867Z,17.47
2018-05-03T20:37:26.420Z,17.49
2018-05-03T20:39:53.984Z,17.47
2018-05-03T20:42:21.560Z,17.45
2018-05-03T20:44:49.149Z,17.46
2018-05-03T20:47:16.724Z,17.42
2018-05-03T20:49:44.462Z,17.31
2018-05-03T20:52:12.028Z,17.31
2018-05-03T20:54:39.600Z,17.34
2018-05-03T20:57:07.386Z,17.41
2018-05-03T20:59:34.956Z,17.43
2018-05-03T21:02:02.529Z,17.45
2018-05-03T21:04:30.124Z,17.41
2018-05-03T21:06:57.670Z,17.37
2018-05-03T21:09:25.213Z,17.44
2018-05-03T21:11:52.892Z,17.46
2018-05-03T21:14:20.434Z,17.46
2018-05-03T21:16:47.975Z,17.56
2018-05-03T21:19:15.710Z,17.70
2018-05-03T21:21:43.303Z,17.76
2018-05-03T21:24:10.842Z,17.83
2018-05-03T21:26:38.500Z,17.88
2018-05-03T21:29:06.057Z,17.91
2018-05-03T21:31:33.600Z,18.00
2018-05-03T21:34:01.184Z,18.07
2018-05-03T21:36:28.778Z,18.17
2018-05-03T21:38:56.321Z,18.22
2018-05-03T21:41:24.054Z,18.15
2018-05-03T21:43:51.617Z,18.13
2018-05-03T21:46:19.177Z,18.09
2018-05-03T21:48:46.892Z,18.05
2018-05-03T21:51:14.444Z,18.00
2018-05-03T21:53:42.033Z,17.90
2018-05-03T21:56:09.916Z,17.94
2018-05-03T21:58:37.458Z,17.91
2018-05-03T22:01:05.033Z,17.93
2018-05-03T22:03:32.606Z,17.93
2018-05-03T22:06:00.165Z,17.99
2018-05-03T22:08:27.714Z,18.04
2018-05-03T22:10:55.262Z,18.11
2018-05-03T22:13:22.851Z,18.14
2018-05-03T22:15:50.427Z,18.18
2018-05-03T22:18:17.977Z,18.26
2018-05-03T22:20:45.542Z,18.32
2018-05-03T22:23:13.107Z,18.30
2018-05-03T22:25:40.644Z,18.31
2018-05-03T22:28:08.196Z,18.35
2018-05-03T22:30:35.769Z,18.35
2018-05-03T22:33:03.320Z,18.30
2018-05-03T22:35:30.877Z,18.22
2018-05-03T22:37:58.459Z,18.22
2018-05-03T22:40:26.005Z,18.16
2018-05-03T22:42:53.543Z,18.12
2018-05-03T22:45:21.263Z,18.14
2018-05-03T22:47:48.802Z,18.04
2018-05-03T22:50:16.361Z,17.95
2018-05-03T22:52:43.953Z,17.87
2018-05-03T22:55:11.507Z,17.80
2018-05-03T22:57:39.057Z,17.84
2018-05-03T23:00:06.818Z,17.94
2018-05-03T23:02:34.365Z,18.03
2018-05-03T23:05:01.916Z,18.04
2018-05-03T23:07:29.508Z,18.12
2018-05-03T23:09:57.082Z,18.11
2018-05-03T23:12:24.661Z,18.14
2018-05-03T23:14:52.262Z,18.16
2018-05-03T23:17:19.828Z,18.23
2018-05-03T23:19:47.368Z,18.30
2018-05-03T23:22:14.936Z,18.33
2018-05-03T23:24:42.476Z,18.31
2018-05-03T23:27:10.019Z,18.32
2018-05-03T23:29:37.741Z,18.23
2018-05-03T23:32:05.285Z,18.22
2018-05-03T23:34:32.823Z,18.13
2018-05-03T23:37:00.409Z,17.96
2018-05-03T23:39:27.959Z,17.86
2018-05-03T23:41:55.513Z,17.63
2018-05-03T23:44:23.206Z,17.66
2018-05-03T23:46:50.739Z,17.79
2018-05-03T23:49:18.279Z,17.84
2018-05-03T23:51:46.003Z,17.86
2018-05-03T23:54:13.556Z,17.93
2018-05-03T23:56:41.095Z,17.82
2018-05-03T23:59:08.680Z,17.81
